Clements, Kansas
Current Conditions -  °F | °C
As of 1:53 AM on Tuesday 27 Jan 2015 (Local Time) from KEMP Reporting Station
Clear Clear  
Wind Chill: 36°   Ceiling: Unl
Heat Index: 39°   Visibility: 10mi
Dew Point: 30°   Wind: 5mph
Humidity: 70%   Direction: 310°NW
Pressure: 30.07"   Gusts: NA
Location:  38.2898°N, 96.7469°W
Report Text: KEMP 270753Z AUTO 31004KT 10SM CLR 04/M01 A3007 RMK AO2 SLP185 T00391011
Loading
Personal Weather Stations






























Interactive Weather Map New forecast layout! Learn more

10-Day Weather Forecast

Advertisements
Track Severe Weather on mobile